Time;durP1;ratioP1;P1;durP2;ratioP2;P2;SDS_P1;SDS_P2;PMS_P1;PMS_P2;Temp;Humidity;BMP_temperature;BMP_pressure;BME280_temperature;BME280_humidity;BME280_pressure;Samples;Min_cycle;Max_cycle;Signal;HPM_P1;HPM_P2
2022/05/12 00:02:10;;;;;;;11.27;4.00;;;14.20;99.90;;;;;;5108955;28;20247;-54
2022/05/12 00:04:36;;;;;;;15.47;4.30;;;14.20;99.90;;;;;;5082197;28;20283;-54
2022/05/12 00:07:03;;;;;;;16.07;4.17;;;14.20;99.90;;;;;;5102461;28;20418;-54
2022/05/12 00:09:29;;;;;;;9.50;4.03;;;14.20;99.90;;;;;;5107559;28;20441;-54
2022/05/12 00:11:55;;;;;;;22.50;4.23;;;14.20;99.90;;;;;;5100728;27;20469;-54
2022/05/12 00:14:21;;;;;;;13.50;4.50;;;14.20;99.90;;;;;;5110190;28;20955;-54
2022/05/12 00:16:47;;;;;;;15.97;4.13;;;14.20;99.90;;;;;;5093846;28;20336;-55
2022/05/12 00:19:13;;;;;;;10.13;4.27;;;14.10;99.90;;;;;;5095937;28;20504;-53
2022/05/12 00:21:39;;;;;;;13.27;4.80;;;14.20;99.90;;;;;;5105981;27;20536;-57
2022/05/12 00:24:06;;;;;;;16.63;4.73;;;14.20;99.90;;;;;;5101218;27;20242;-55
2022/05/12 00:26:34;;;;;;;16.10;4.83;;;14.20;1.00;;;;;;5098388;27;20426;-55
2022/05/12 00:29:05;;;;;;;15.43;5.30;;;14.10;1.00;;;;;;5097605;28;20775;-54
2022/05/12 00:31:32;;;;;;;14.10;4.90;;;14.00;1.00;;;;;;5098950;28;20759;-55
2022/05/12 00:33:57;;;;;;;13.40;5.00;;;13.90;1.00;;;;;;5101714;27;20826;-54
2022/05/12 00:36:23;;;;;;;15.70;5.00;;;13.90;1.00;;;;;;5102370;27;20516;-53
2022/05/12 00:38:48;;;;;;;13.87;4.80;;;13.80;1.00;;;;;;5099044;28;20196;-56
2022/05/12 00:41:16;;;;;;;8.73;4.37;;;13.80;1.00;;;;;;5102528;28;20203;-54
2022/05/12 00:43:47;;;;;;;12.30;5.13;;;13.80;1.00;;;;;;5108532;28;20261;-55
2022/05/12 00:46:16;;;;;;;17.40;5.20;;;13.80;1.00;;;;;;5101606;28;20439;-54
2022/05/12 00:48:42;;;;;;;11.30;5.70;;;13.80;1.00;;;;;;5101352;28;20434;-54
2022/05/12 00:51:11;;;;;;;13.10;4.90;;;13.80;1.00;;;;;;5100881;27;20457;-55
2022/05/12 00:53:37;;;;;;;11.47;5.03;;;13.80;1.00;;;;;;5104585;27;20461;-54
2022/05/12 00:56:07;;;;;;;8.97;5.00;;;13.80;6.40;;;;;;5099746;27;20468;-54
2022/05/12 00:58:34;;;;;;;13.00;5.83;;;13.80;1.00;;;;;;5094485;28;20446;-54
2022/05/12 01:01:03;;;;;;;11.93;4.80;;;13.80;9.30;;;;;;5104094;28;20429;-54
2022/05/12 01:03:29;;;;;;;12.27;5.40;;;13.80;1.00;;;;;;5103540;27;20508;-54
2022/05/12 01:05:55;;;;;;;15.20;5.13;;;13.80;1.00;;;;;;5105715;28;20482;-54
2022/05/12 01:08:22;;;;;;;11.83;4.97;;;13.80;1.00;;;;;;5102706;28;20199;-54
2022/05/12 01:10:52;;;;;;;13.37;5.73;;;13.80;1.00;;;;;;5100750;28;20430;-54
2022/05/12 01:13:19;;;;;;;7.33;5.40;;;13.80;1.00;;;;;;5100917;27;20466;-53
2022/05/12 01:15:56;;;;;;;13.77;5.43;;;13.90;1.00;;;;;;5098987;27;20455;-54
2022/05/12 01:18:23;;;;;;;26.50;5.33;;;14.00;1.00;;;;;;5095392;28;20484;-54
2022/05/12 01:20:50;;;;;;;22.67;5.33;;;13.90;1.00;;;;;;5101087;28;20492;-54
2022/05/12 01:23:23;;;;;;;12.23;5.50;;;13.90;1.00;;;;;;5104363;28;20457;-54
2022/05/12 01:25:49;;;;;;;14.00;5.30;;;13.90;1.00;;;;;;5099311;28;20458;-54
2022/05/12 01:28:15;;;;;;;15.23;6.10;;;13.90;1.00;;;;;;5103082;28;20470;-54
2022/05/12 01:30:41;;;;;;;14.03;5.60;;;13.80;1.00;;;;;;5094494;28;20474;-54
2022/05/12 01:33:07;;;;;;;16.57;5.37;;;13.80;1.00;;;;;;5102231;28;20221;-54
2022/05/12 01:35:32;;;;;;;13.03;5.20;;;13.80;1.00;;;;;;5102892;28;20220;-54
2022/05/12 01:37:58;;;;;;;11.00;5.13;;;13.80;1.00;;;;;;5105479;28;20894;-54
2022/05/12 01:40:25;;;;;;;8.73;4.97;;;13.80;1.00;;;;;;5102895;28;20739;-54
2022/05/12 01:42:52;;;;;;;16.40;5.07;;;13.90;1.00;;;;;;5102865;28;20458;-54
2022/05/12 01:45:18;;;;;;;9.90;5.10;;;13.90;1.00;;;;;;5099768;28;20438;-54
2022/05/12 01:47:44;;;;;;;8.87;5.07;;;13.90;1.00;;;;;;5103970;28;20442;-54
2022/05/12 01:50:13;;;;;;;9.60;4.80;;;13.90;1.00;;;;;;5100827;27;20596;-54
2022/05/12 01:52:43;;;;;;;8.53;4.70;;;13.90;1.00;;;;;;5095542;28;20928;-54
2022/05/12 01:55:13;;;;;;;7.63;4.00;;;13.90;1.00;;;;;;5100322;27;20443;-54
2022/05/12 01:57:43;;;;;;;8.00;4.13;;;13.90;1.00;;;;;;5105189;28;20445;-54
2022/05/12 02:00:12;;;;;;;4.43;3.57;;;14.00;1.00;;;;;;5095060;28;20439;-54
2022/05/12 02:02:39;;;;;;;8.50;3.57;;;13.90;1.00;;;;;;5100108;28;20814;-55
2022/05/12 02:05:09;;;;;;;7.20;3.30;;;14.00;1.00;;;;;;5102236;28;20434;-54
2022/05/12 02:07:36;;;;;;;4.87;3.60;;;14.00;1.00;;;;;;5102474;28;20411;-55
2022/05/12 02:10:04;;;;;;;8.27;3.73;;;14.00;1.00;;;;;;5104551;28;20436;-55
2022/05/12 02:12:30;;;;;;;12.37;4.63;;;13.90;1.00;;;;;;5098099;28;20548;-54
2022/05/12 02:14:55;;;;;;;7.10;4.00;;;14.00;1.00;;;;;;5096456;28;20520;-55
2022/05/12 02:17:21;;;;;;;8.97;4.20;;;13.90;1.00;;;;;;5098872;28;20203;-54
2022/05/12 02:19:47;;;;;;;11.40;4.57;;;13.80;1.00;;;;;;5100591;28;20784;-55
2022/05/12 02:22:12;;;;;;;7.30;3.67;;;13.80;1.00;;;;;;5104982;28;20203;-54
2022/05/12 02:24:38;;;;;;;6.10;4.37;;;13.70;1.00;;;;;;5105289;28;20777;-54
2022/05/12 02:27:03;;;;;;;7.97;4.87;;;13.60;99.90;;;;;;5096712;28;20220;-56
2022/05/12 02:29:29;;;;;;;10.20;5.40;;;13.50;99.90;;;;;;5098276;28;20320;-56
2022/05/12 02:31:55;;;;;;;11.57;5.03;;;13.30;1.00;;;;;;5093572;28;20220;-56
2022/05/12 02:34:20;;;;;;;6.83;4.80;;;13.00;1.00;;;;;;5094414;28;20181;-56
2022/05/12 02:36:59;;;;;;;10.43;5.73;;;12.90;22.30;;;;;;5097449;28;20194;-56
2022/05/12 02:39:29;;;;;;;6.43;4.63;;;12.80;99.90;;;;;;5099887;28;20188;-57
2022/05/12 02:41:55;;;;;;;7.40;5.50;;;12.70;99.90;;;;;;5106740;28;20446;-56
2022/05/12 02:44:20;;;;;;;6.87;4.23;;;12.60;1.00;;;;;;5106598;28;20442;-56
2022/05/12 02:46:46;;;;;;;10.57;4.30;;;12.60;99.90;;;;;;5097173;28;20196;-56
2022/05/12 02:49:12;;;;;;;11.10;3.20;;;12.30;1.00;;;;;;5105519;28;20201;-56
2022/05/12 02:51:37;;;;;;;5.40;3.27;;;12.30;1.00;;;;;;5102276;28;20284;-56
2022/05/12 02:54:03;;;;;;;5.57;3.07;;;12.20;1.00;;;;;;5102260;28;20192;-56
2022/05/12 02:56:29;;;;;;;6.30;2.80;;;12.00;99.90;;;;;;5108045;28;20188;-55
2022/05/12 02:58:54;;;;;;;6.77;2.67;;;11.90;1.00;;;;;;5106322;28;20438;-55
2022/05/12 03:01:20;;;;;;;3.43;2.40;;;11.90;1.00;;;;;;5107315;28;20196;-54
2022/05/12 03:03:45;;;;;;;6.30;2.10;;;11.90;1.00;;;;;;5108421;27;20239;-56
2022/05/12 03:06:11;;;;;;;3.73;2.23;;;11.80;99.90;;;;;;5091943;28;20192;-55
2022/05/12 03:08:37;;;;;;;3.10;2.30;;;11.80;1.00;;;;;;5108523;27;20204;-56
2022/05/12 03:11:04;;;;;;;3.27;2.20;;;11.70;1.00;;;;;;5110621;28;20204;-55
2022/05/12 03:13:31;;;;;;;4.23;2.40;;;11.70;1.00;;;;;;5102153;28;20208;-56
2022/05/12 03:15:57;;;;;;;7.33;2.50;;;11.70;1.00;;;;;;5103521;28;20788;-55
2022/05/12 03:18:24;;;;;;;5.37;2.80;;;11.70;1.00;;;;;;5097412;28;20439;-54
2022/05/12 03:20:50;;;;;;;3.70;2.30;;;11.70;1.00;;;;;;5104875;28;20498;-55
2022/05/12 03:23:15;;;;;;;3.73;3.23;;;11.60;1.00;;;;;;5104593;27;20439;-56
2022/05/12 03:25:43;;;;;;;4.73;2.80;;;11.60;1.00;;;;;;5104285;27;20528;-58
2022/05/12 03:28:09;;;;;;;4.70;2.80;;;11.60;1.00;;;;;;5103365;28;20258;-55
2022/05/12 03:30:35;;;;;;;7.13;3.63;;;11.60;1.00;;;;;;5108191;28;20452;-56
2022/05/12 03:33:00;;;;;;;10.50;3.87;;;11.60;1.00;;;;;;5104752;28;20466;-54
2022/05/12 03:35:26;;;;;;;9.70;3.47;;;11.60;1.00;;;;;;5101768;27;20205;-56
2022/05/12 03:37:51;;;;;;;8.90;2.70;;;11.60;99.90;;;;;;5103058;28;20197;-56
2022/05/12 03:40:17;;;;;;;6.03;2.97;;;11.50;1.00;;;;;;5110407;27;20196;-55
2022/05/12 03:42:44;;;;;;;4.97;2.40;;;11.50;99.90;;;;;;5105881;28;20627;-56
2022/05/12 03:45:10;;;;;;;5.50;2.67;;;11.50;99.90;;;;;;5104066;28;20289;-56
2022/05/12 03:47:38;;;;;;;5.83;2.97;;;11.40;99.90;;;;;;5105546;28;20530;-59
2022/05/12 03:50:11;;;;;;;6.53;2.60;;;11.40;99.90;;;;;;5102339;27;20445;-56
2022/05/12 03:52:37;;;;;;;7.70;2.63;;;11.40;99.90;;;;;;5105850;28;20967;-55
2022/05/12 03:55:05;;;;;;;7.67;2.33;;;11.50;99.90;;;;;;5101383;27;20426;-55
2022/05/12 03:57:31;;;;;;;5.87;2.57;;;11.50;99.90;;;;;;5105994;27;20924;-56
2022/05/12 03:59:57;;;;;;;5.90;2.83;;;11.50;99.90;;;;;;5098871;28;20435;-56
2022/05/12 04:02:23;;;;;;;10.73;2.87;;;11.40;99.90;;;;;;5102064;28;20441;-56
2022/05/12 04:04:49;;;;;;;7.93;2.87;;;11.40;99.90;;;;;;5106788;27;20192;-55
2022/05/12 04:07:17;;;;;;;6.00;3.27;;;11.40;99.90;;;;;;5104726;28;20939;-56
2022/05/12 04:09:43;;;;;;;7.73;3.30;;;11.50;99.90;;;;;;5104632;28;20188;-55
2022/05/12 04:12:10;;;;;;;10.10;4.23;;;11.50;99.90;;;;;;5091888;28;20996;-56
2022/05/12 04:14:37;;;;;;;7.40;3.40;;;11.40;99.90;;;;;;5106135;28;20434;-55
2022/05/12 04:17:03;;;;;;;11.60;3.90;;;11.50;99.90;;;;;;5109023;27;20919;-56
2022/05/12 04:19:29;;;;;;;9.13;4.37;;;11.40;99.90;;;;;;5104020;28;20478;-56
2022/05/12 04:21:54;;;;;;;9.93;3.90;;;11.40;99.90;;;;;;5104595;28;20441;-56
2022/05/12 04:24:20;;;;;;;6.87;4.17;;;11.40;99.90;;;;;;5106776;27;20203;-56
2022/05/12 04:26:46;;;;;;;11.70;5.37;;;11.40;99.90;;;;;;5105691;27;20192;-55
2022/05/12 04:29:13;;;;;;;11.33;5.13;;;11.40;30.80;;;;;;5105598;28;20180;-57
2022/05/12 04:31:40;;;;;;;11.93;4.50;;;11.40;55.40;;;;;;5103482;28;20527;-56
2022/05/12 04:36:49;;;;;;;6.80;4.80;;;11.40;3.10;;;;;;5105763;28;20834;-54
2022/05/12 04:39:15;;;;;;;7.50;4.37;;;11.50;1.00;;;;;;5103233;27;20434;-56
2022/05/12 04:41:41;;;;;;;12.90;5.30;;;11.50;1.00;;;;;;5103865;28;20195;-56
2022/05/12 04:44:07;;;;;;;6.07;4.10;;;11.50;1.00;;;;;;5104174;27;21064;-55
2022/05/12 04:46:37;;;;;;;10.47;4.70;;;11.50;1.00;;;;;;5108283;28;20219;-56
2022/05/12 04:49:04;;;;;;;10.73;4.40;;;11.50;1.00;;;;;;5107095;27;20204;-56
2022/05/12 04:51:30;;;;;;;9.03;4.20;;;11.60;1.00;;;;;;5103738;27;20433;-55
2022/05/12 04:53:55;;;;;;;10.73;4.73;;;11.60;1.00;;;;;;5106375;28;20939;-55
2022/05/12 04:56:21;;;;;;;11.00;4.93;;;11.60;1.00;;;;;;5104331;27;20597;-55
2022/05/12 04:58:46;;;;;;;7.40;4.70;;;11.60;1.00;;;;;;5106546;27;20215;-55
2022/05/12 05:01:12;;;;;;;11.47;5.30;;;11.70;1.00;;;;;;5105021;28;20196;-56
2022/05/12 05:03:38;;;;;;;11.93;4.93;;;11.70;1.00;;;;;;5106202;28;20207;-55
2022/05/12 05:06:03;;;;;;;14.37;4.90;;;11.70;1.00;;;;;;5099396;28;20236;-55
2022/05/12 05:08:29;;;;;;;10.70;5.20;;;11.70;1.00;;;;;;5108070;28;20208;-55
2022/05/12 05:10:55;;;;;;;7.70;4.00;;;11.60;1.00;;;;;;5105407;28;20200;-55
2022/05/12 05:13:22;;;;;;;11.00;4.10;;;11.60;1.00;;;;;;5107886;28;20216;-55
2022/05/12 05:15:49;;;;;;;6.73;4.17;;;11.60;1.00;;;;;;5106152;28;20220;-55
2022/05/12 05:18:17;;;;;;;12.57;4.83;;;11.80;1.00;;;;;;5089174;28;20492;-55
2022/05/12 05:20:44;;;;;;;9.50;4.57;;;11.90;1.00;;;;;;5106548;28;20481;-54
2022/05/12 05:23:11;;;;;;;8.13;4.60;;;12.00;1.00;;;;;;5096901;28;20443;-55
2022/05/12 05:25:38;;;;;;;13.57;4.97;;;12.10;1.00;;;;;;5102444;28;20430;-55
2022/05/12 05:28:05;;;;;;;10.90;4.37;;;12.20;1.00;;;;;;5107892;27;20433;-55
2022/05/12 05:30:31;;;;;;;6.57;4.17;;;12.30;1.00;;;;;;5108265;28;20459;-55
2022/05/12 05:32:56;;;;;;;11.60;4.57;;;12.50;1.00;;;;;;5099806;28;20560;-55
2022/05/12 05:35:23;;;;;;;13.83;4.70;;;12.50;1.00;;;;;;5105302;28;20946;-54
2022/05/12 05:37:49;;;;;;;10.20;4.07;;;12.60;1.00;;;;;;5106487;28;20192;-54
2022/05/12 05:40:17;;;;;;;18.63;5.00;;;12.80;1.00;;;;;;5108579;27;20434;-56
2022/05/12 05:42:44;;;;;;;8.97;4.00;;;12.90;1.00;;;;;;5099015;28;20434;-54
2022/05/12 05:45:15;;;;;;;8.97;3.80;;;13.00;1.00;;;;;;5099785;28;20439;-55
2022/05/12 05:47:44;;;;;;;9.40;3.50;;;13.10;99.90;;;;;;5102645;28;20442;-55
2022/05/12 05:50:12;;;;;;;8.80;3.77;;;13.30;99.90;;;;;;5102026;27;20439;-55
2022/05/12 05:55:22;;;;;;;8.10;3.63;;;13.10;99.90;;;;;;5095177;28;20461;-55
2022/05/12 05:57:47;;;;;;;10.73;4.00;;;13.10;99.90;;;;;;5103800;27;20482;-54
2022/05/12 06:00:14;;;;;;;12.90;4.10;;;13.10;99.90;;;;;;5105634;28;20529;-53
2022/05/12 06:02:39;;;;;;;13.27;4.30;;;13.20;99.90;;;;;;5104768;28;20208;-54
2022/05/12 06:05:05;;;;;;;12.37;4.20;;;13.40;99.90;;;;;;5107195;28;20532;-55
2022/05/12 06:07:34;;;;;;;6.17;3.27;;;13.60;99.90;;;;;;5105252;28;20227;-54
2022/05/12 06:10:01;;;;;;;8.93;4.40;;;13.50;99.90;;;;;;5106425;28;21255;-54
2022/05/12 06:12:27;;;;;;;11.50;4.17;;;13.50;99.90;;;;;;5103905;28;20463;-54
2022/05/12 06:14:53;;;;;;;10.53;3.97;;;13.40;99.90;;;;;;5106280;28;20494;-55
2022/05/12 06:17:18;;;;;;;9.37;3.80;;;13.20;99.90;;;;;;5108085;28;20442;-54
2022/05/12 06:19:44;;;;;;;9.27;4.53;;;13.30;99.90;;;;;;5101448;28;20239;-54
2022/05/12 06:22:10;;;;;;;7.70;3.90;;;13.40;99.90;;;;;;5101556;28;20204;-54
2022/05/12 06:24:37;;;;;;;11.63;4.20;;;13.50;99.90;;;;;;5108588;28;20211;-55
2022/05/12 06:27:03;;;;;;;10.70;3.90;;;13.60;99.90;;;;;;5106524;28;20285;-54
2022/05/12 06:29:28;;;;;;;6.50;3.37;;;13.60;99.90;;;;;;5102516;28;20472;-55
2022/05/12 06:31:54;;;;;;;12.60;3.80;;;13.80;99.90;;;;;;5103880;28;20205;-55
2022/05/12 06:34:19;;;;;;;13.63;4.30;;;13.70;99.90;;;;;;5107424;28;20203;-55
2022/05/12 06:36:45;;;;;;;9.67;3.80;;;13.90;99.90;;;;;;5108153;28;20337;-55
2022/05/12 06:39:11;;;;;;;7.67;3.80;;;14.00;99.90;;;;;;5105583;27;20213;-55
2022/05/12 06:41:36;;;;;;;8.83;3.97;;;14.00;99.90;;;;;;5103837;27;20438;-54
2022/05/12 06:44:04;;;;;;;8.77;3.83;;;14.40;99.90;;;;;;5106776;28;20226;-54
2022/05/12 06:46:30;;;;;;;14.30;4.00;;;14.60;99.90;;;;;;5109463;27;20192;-54
2022/05/12 06:48:56;;;;;;;6.60;3.10;;;14.70;99.90;;;;;;5104770;28;20517;-54
2022/05/12 06:51:21;;;;;;;8.20;3.80;;;14.60;99.90;;;;;;5109824;28;20201;-54
2022/05/12 06:53:47;;;;;;;8.37;3.60;;;14.50;99.90;;;;;;5107846;28;20217;-54
2022/05/12 06:56:13;;;;;;;10.50;3.43;;;14.60;99.90;;;;;;5106744;28;20647;-56
2022/05/12 06:58:39;;;;;;;7.63;3.53;;;14.80;99.90;;;;;;5111343;28;20196;-54
2022/05/12 07:01:05;;;;;;;5.03;3.40;;;15.10;99.90;;;;;;5107712;28;20449;-53
2022/05/12 07:03:32;;;;;;;7.18;3.15;;;15.20;99.90;;;;;;5105334;27;20948;-54
2022/05/12 07:05:58;;;;;;;7.80;3.50;;;15.20;99.90;;;;;;5111252;28;20200;-53
2022/05/12 07:08:26;;;;;;;11.60;3.57;;;15.10;99.90;;;;;;5093723;28;20427;-54
2022/05/12 07:10:52;;;;;;;7.30;3.00;;;15.20;99.90;;;;;;5110619;27;20441;-56
2022/05/12 07:13:21;;;;;;;10.37;3.63;;;15.00;99.90;;;;;;5101375;27;20652;-50
2022/05/12 07:15:49;;;;;;;4.57;3.00;;;14.90;99.90;;;;;;5108587;28;20433;-50
2022/05/12 07:18:15;;;;;;;4.93;2.27;;;14.90;99.90;;;;;;5104579;27;20464;-50
2022/05/12 07:28:53;;;;;;;5.77;3.23;;;15.70;99.90;;;;;;5107755;28;20416;-56
2022/05/12 07:31:18;;;;;;;7.83;3.73;;;15.80;99.90;;;;;;5107106;28;20435;-57
2022/05/12 07:33:46;;;;;;;10.13;3.80;;;16.10;99.90;;;;;;5103520;28;20298;-50
2022/05/12 07:36:25;;;;;;;7.63;3.67;;;16.10;99.90;;;;;;5105025;28;20197;-50
2022/05/12 07:38:51;;;;;;;9.57;3.90;;;15.70;99.90;;;;;;5102486;28;20928;-50
2022/05/12 07:41:18;;;;;;;5.67;3.57;;;15.20;99.90;;;;;;5108877;28;20495;-50
2022/05/12 07:43:45;;;;;;;6.53;3.40;;;15.10;99.90;;;;;;5107376;28;20200;-50
2022/05/12 07:46:13;;;;;;;4.80;3.23;;;15.30;99.90;;;;;;5103638;28;20430;-50
2022/05/12 07:48:40;;;;;;;7.77;4.20;;;15.70;99.90;;;;;;5101869;28;20438;-50
2022/05/12 07:51:06;;;;;;;8.33;4.83;;;15.90;99.90;;;;;;5079620;28;20432;-50
2022/05/12 07:53:32;;;;;;;9.30;5.43;;;16.00;99.90;;;;;;5110780;28;20466;-51
2022/05/12 07:55:58;;;;;;;8.40;5.30;;;15.90;99.90;;;;;;5106531;28;20438;-51
2022/05/12 07:58:23;;;;;;;8.40;4.83;;;16.10;99.90;;;;;;5104851;28;20427;-55
2022/05/12 08:00:49;;;;;;;10.97;5.57;;;16.40;99.90;;;;;;5102624;28;20200;-50
2022/05/12 08:03:15;;;;;;;6.77;4.70;;;16.60;99.90;;;;;;5104495;28;20185;-51
2022/05/12 08:05:40;;;;;;;8.60;4.60;;;16.90;99.90;;;;;;5103555;28;20279;-50
2022/05/12 08:08:07;;;;;;;6.73;3.40;;;17.30;99.90;;;;;;5099453;28;20262;-50
2022/05/12 08:10:34;;;;;;;7.60;3.43;;;17.60;99.90;;;;;;5107510;28;20216;-50
2022/05/12 08:13:00;;;;;;;7.10;2.93;;;18.00;99.90;;;;;;5102137;28;20466;-59
2022/05/12 08:15:26;;;;;;;6.77;3.20;;;18.30;99.90;;;;;;5101761;28;20510;-51
2022/05/12 08:17:53;;;;;;;5.23;2.63;;;18.60;99.90;;;;;;5106575;28;20838;-51
2022/05/12 08:20:19;;;;;;;5.83;2.70;;;19.20;99.90;;;;;;5110975;28;20838;-50
2022/05/12 08:22:45;;;;;;;5.50;2.77;;;19.00;99.90;;;;;;5100952;28;21161;-50
2022/05/12 08:25:11;;;;;;;3.20;2.53;;;18.20;99.90;;;;;;5110118;28;20826;-50
2022/05/12 08:27:37;;;;;;;4.90;2.60;;;17.30;99.90;;;;;;5100189;28;20422;-50
2022/05/12 08:30:06;;;;;;;7.27;2.67;;;17.00;99.90;;;;;;5105420;28;20510;-50
2022/05/12 08:32:31;;;;;;;4.50;2.63;;;17.20;99.90;;;;;;5102983;28;20481;-50
2022/05/12 08:34:57;;;;;;;5.33;2.30;;;17.80;99.90;;;;;;5109198;28;20509;-50
2022/05/12 08:37:23;;;;;;;3.83;2.63;;;18.60;99.90;;;;;;5105723;28;20664;-50
2022/05/12 08:39:49;;;;;;;5.10;2.77;;;18.50;99.90;;;;;;5106781;28;20283;-55
2022/05/12 08:42:21;;;;;;;6.67;3.10;;;18.00;99.90;;;;;;5101890;28;20195;-50
2022/05/12 08:44:47;;;;;;;3.87;2.33;;;18.20;99.90;;;;;;5107096;28;20467;-50
2022/05/12 08:47:18;;;;;;;4.60;2.30;;;18.30;99.90;;;;;;5101187;28;20426;-51
2022/05/12 08:49:51;;;;;;;8.03;2.77;;;18.10;99.90;;;;;;5107649;28;20437;-51
2022/05/12 08:52:19;;;;;;;4.70;2.70;;;18.30;99.90;;;;;;5099851;28;20474;-51
2022/05/12 08:55:18;;;;;;;6.80;2.80;;;18.00;99.90;;;;;;5103216;28;20438;-50
2022/05/12 08:57:56;;;;;;;6.90;2.70;;;17.40;99.90;;;;;;5090274;28;20435;-51
2022/05/12 09:00:22;;;;;;;8.30;2.70;;;17.70;99.90;;;;;;5099162;28;20435;-51
2022/05/12 09:03:19;;;;;;;2.60;2.40;;;17.60;99.90;;;;;;5103198;28;20870;-50
2022/05/12 09:06:01;;;;;;;4.87;2.00;;;17.30;99.90;;;;;;5101350;28;20429;-50
2022/05/12 09:09:04;;;;;;;7.70;2.70;;;17.10;99.90;;;;;;5105389;28;20440;-51
2022/05/12 09:11:45;;;;;;;8.30;3.10;;;17.30;99.90;;;;;;5105982;28;20888;-50
2022/05/12 09:14:17;;;;;;;8.33;2.30;;;17.40;99.90;;;;;;5105202;28;20467;-51
2022/05/12 09:16:44;;;;;;;3.33;2.20;;;17.30;99.90;;;;;;5099968;28;20422;-51
2022/05/12 09:19:15;;;;;;;4.93;1.83;;;17.30;99.90;;;;;;5105490;28;21267;-51
2022/05/12 09:21:41;;;;;;;8.47;2.40;;;17.40;99.90;;;;;;5097783;28;20761;-50
2022/05/12 09:24:07;;;;;;;3.83;2.13;;;17.50;99.90;;;;;;5105018;28;20438;-52
2022/05/12 09:26:46;;;;;;;7.07;1.90;;;17.90;99.90;;;;;;5104949;28;20208;-50
2022/05/12 09:29:14;;;;;;;5.20;1.90;;;18.10;99.90;;;;;;5098707;28;20427;-50
2022/05/12 09:31:45;;;;;;;4.33;1.90;;;18.30;99.90;;;;;;5105277;28;20513;-50
2022/05/12 09:34:16;;;;;;;6.00;1.97;;;18.00;99.90;;;;;;5104976;28;20457;-50
2022/05/12 09:36:41;;;;;;;3.00;1.53;;;17.70;99.90;;;;;;5101418;28;20458;-51
2022/05/12 09:39:07;;;;;;;4.80;2.17;;;17.40;99.90;;;;;;5107785;28;20466;-50
2022/05/12 09:41:41;;;;;;;3.57;2.13;;;17.20;99.90;;;;;;5097996;28;20893;-50
2022/05/12 09:44:28;;;;;;;7.03;1.93;;;16.90;99.90;;;;;;5106228;28;20196;-50
2022/05/12 09:47:17;;;;;;;8.03;1.90;;;17.20;99.90;;;;;;5106122;28;20509;-50
2022/05/12 09:49:44;;;;;;;2.93;1.63;;;17.80;99.90;;;;;;5096940;28;20426;-50
2022/05/12 09:52:31;;;;;;;5.43;1.80;;;18.00;99.90;;;;;;5099981;28;20449;-51
2022/05/12 09:55:17;;;;;;;1.80;1.63;;;18.20;99.90;;;;;;5094689;28;20422;-50
2022/05/12 09:57:53;;;;;;;5.00;1.90;;;18.50;99.90;;;;;;5097671;28;20407;-50
2022/05/12 10:00:30;;;;;;;4.97;1.43;;;19.50;99.90;;;;;;5094392;28;20434;-51
2022/05/12 10:09:04;;;;;;;4.03;1.47;;;18.60;99.90;;;;;;5104107;28;20528;-50
2022/05/12 10:11:54;;;;;;;3.47;1.40;;;18.60;99.90;;;;;;5097005;28;20426;-50
2022/05/12 10:14:48;;;;;;;3.73;1.43;;;19.70;99.90;;;;;;5084479;28;20450;-50
2022/05/12 10:17:29;;;;;;;9.53;2.10;;;21.20;99.90;;;;;;5104318;28;20915;-50
2022/05/12 10:20:04;;;;;;;4.07;1.60;;;22.10;99.90;;;;;;5102596;28;20480;-51
2022/05/12 10:22:55;;;;;;;2.23;1.47;;;21.40;99.90;;;;;;5106438;28;20434;-51
2022/05/12 10:25:39;;;;;;;4.73;1.60;;;20.70;99.90;;;;;;5105118;28;20461;-50
2022/05/12 10:28:15;;;;;;;3.17;1.40;;;20.00;99.90;;;;;;5104367;28;20427;-50
2022/05/12 10:31:02;;;;;;;6.77;1.47;;;19.50;99.90;;;;;;5101554;28;20445;-50
2022/05/12 10:33:37;;;;;;;6.23;2.90;;;19.10;99.90;;;;;;5104915;28;20466;-50
2022/05/12 10:36:27;;;;;;;4.60;1.70;;;18.30;99.90;;;;;;5103664;28;20457;-50
2022/05/12 10:39:04;;;;;;;3.33;1.50;;;17.80;99.90;;;;;;5104123;28;20436;-50
2022/05/12 10:41:36;;;;;;;8.57;1.73;;;17.50;99.90;;;;;;5107775;28;20487;-50
2022/05/12 10:44:26;;;;;;;4.20;1.57;;;17.40;99.90;;;;;;5103909;28;20429;-50
2022/05/12 10:47:06;;;;;;;7.50;1.63;;;17.50;99.90;;;;;;5105353;28;20418;-50
2022/05/12 10:49:48;;;;;;;7.70;2.70;;;18.10;99.90;;;;;;5103389;28;20514;-50
2022/05/12 10:52:32;;;;;;;3.73;1.50;;;19.70;99.90;;;;;;5098449;28;20474;-50
2022/05/12 10:55:34;;;;;;;8.67;2.40;;;20.70;99.90;;;;;;5106096;28;20434;-50
2022/05/12 10:58:20;;;;;;;9.50;1.83;;;20.40;99.90;;;;;;5099739;28;20868;-50
2022/05/12 11:01:10;;;;;;;5.37;1.63;;;19.90;99.90;;;;;;5101987;28;20426;-50
2022/05/12 11:03:58;;;;;;;3.93;1.30;;;19.80;99.90;;;;;;5103062;28;21112;-52
2022/05/12 11:06:33;;;;;;;2.40;1.17;;;19.60;99.90;;;;;;5098949;28;20442;-51
2022/05/12 11:09:07;;;;;;;5.50;1.90;;;19.30;99.90;;;;;;5101813;28;20927;-51
2022/05/12 11:11:37;;;;;;;5.40;1.50;;;19.00;99.90;;;;;;5102174;28;20437;-51
2022/05/12 11:14:02;;;;;;;4.10;1.50;;;18.80;99.90;;;;;;5099453;28;20862;-51
2022/05/12 11:16:35;;;;;;;3.83;1.40;;;19.70;99.90;;;;;;5103437;28;20438;-51
2022/05/12 11:19:09;;;;;;;4.93;1.50;;;20.70;99.90;;;;;;5099121;28;20246;-54
2022/05/12 11:21:49;;;;;;;3.80;1.60;;;21.10;99.90;;;;;;5103665;28;20422;-51
2022/05/12 11:24:23;;;;;;;3.70;1.53;;;20.60;99.90;;;;;;5105013;28;20418;-50
2022/05/12 11:27:09;;;;;;;3.00;1.60;;;19.90;99.90;;;;;;5105836;28;20431;-51
2022/05/12 11:29:53;;;;;;;3.93;1.30;;;19.60;99.90;;;;;;5106581;28;20428;-50
2022/05/12 11:32:37;;;;;;;4.33;1.20;;;19.20;99.90;;;;;;5102769;28;20472;-52
2022/05/12 11:35:22;;;;;;;4.93;1.90;;;18.80;99.90;;;;;;5103121;28;20572;-51
2022/05/12 11:37:50;;;;;;;11.13;1.80;;;18.70;99.90;;;;;;5109579;28;20713;-51
2022/05/12 11:40:44;;;;;;;3.50;1.50;;;18.70;99.90;;;;;;5102155;27;20474;-51
2022/05/12 11:46:20;;;;;;;8.23;2.17;;;20.90;99.90;;;;;;5103529;28;20514;-51
2022/05/12 11:48:58;;;;;;;4.00;1.40;;;22.50;99.90;;;;;;5104432;28;20429;-51
2022/05/12 11:52:04;;;;;;;3.27;1.60;;;23.80;99.90;;;;;;5105547;27;20461;-53
2022/05/12 11:55:11;;;;;;;5.90;1.40;;;25.00;99.90;;;;;;5104098;28;20488;-53
2022/05/12 11:57:43;;;;;;;1.43;1.20;;;25.30;99.90;;;;;;5082650;28;20927;-54
2022/05/12 12:00:26;;;;;;;2.73;1.43;;;24.30;99.90;;;;;;5101679;28;20436;-53
2022/05/12 12:02:52;;;;;;;3.10;1.60;;;24.40;99.90;;;;;;5103622;28;20525;-52
2022/05/12 12:05:26;;;;;;;2.40;1.47;;;24.70;99.90;;;;;;5105283;28;20490;-52
2022/05/12 12:07:53;;;;;;;5.13;1.60;;;24.90;99.90;;;;;;5103263;28;20962;-52
2022/05/12 12:10:25;;;;;;;3.43;1.50;;;25.80;99.90;;;;;;5100461;28;20534;-52
2022/05/12 12:13:16;;;;;;;4.63;1.90;;;26.30;99.90;;;;;;5100196;28;20462;-52
2022/05/12 12:16:04;;;;;;;2.50;1.50;;;26.20;99.90;;;;;;5105302;28;20426;-53
2022/05/12 12:18:30;;;;;;;3.73;1.50;;;24.40;99.90;;;;;;5104404;27;20487;-53
2022/05/12 12:20:59;;;;;;;4.50;1.33;;;23.50;99.90;;;;;;5096201;28;20475;-56
2022/05/12 12:23:27;;;;;;;2.47;1.57;;;22.80;99.90;;;;;;5095458;28;20570;-53
2022/05/12 12:26:05;;;;;;;4.10;1.47;;;22.30;99.90;;;;;;5100372;28;20543;-50
2022/05/12 12:28:52;;;;;;;6.13;1.60;;;21.90;99.90;;;;;;5095515;28;20848;-53
2022/05/12 12:31:37;;;;;;;6.83;1.53;;;22.50;99.90;;;;;;5103239;27;20454;-51
2022/05/12 12:34:08;;;;;;;5.23;1.30;;;23.40;99.90;;;;;;5104911;28;20466;-52
2022/05/12 12:36:36;;;;;;;2.40;1.50;;;23.80;99.90;;;;;;5098966;27;20441;-51
2022/05/12 12:39:07;;;;;;;3.90;1.97;;;24.10;99.90;;;;;;5105731;27;20448;-51
2022/05/12 12:41:41;;;;;;;3.87;1.63;;;24.10;99.90;;;;;;5103658;28;20437;-51
2022/05/12 12:44:19;;;;;;;2.80;1.70;;;23.60;99.90;;;;;;5105376;28;20452;-51
2022/05/12 12:47:12;;;;;;;1.97;1.50;;;22.90;99.90;;;;;;5103860;28;20414;-51
2022/05/12 12:50:05;;;;;;;2.50;1.50;;;22.60;99.90;;;;;;5106125;28;20911;-51
2022/05/12 12:52:31;;;;;;;1.80;1.00;;;22.60;99.90;;;;;;5096875;28;20469;-51
2022/05/12 12:57:43;;;;;;;2.37;1.30;;;23.40;99.90;;;;;;5099615;27;20207;-51
2022/05/12 13:00:14;;;;;;;3.03;1.30;;;23.50;99.90;;;;;;5103056;28;20423;-52
2022/05/12 13:02:44;;;;;;;2.60;1.30;;;24.00;99.90;;;;;;5101773;28;20465;-52
2022/05/12 13:05:22;;;;;;;2.33;1.20;;;24.10;99.90;;;;;;5103396;28;20407;-51
2022/05/12 13:08:17;;;;;;;2.87;1.23;;;24.00;99.90;;;;;;5101236;28;20441;-51
2022/05/12 13:10:47;;;;;;;2.70;1.20;;;23.90;99.90;;;;;;5105168;28;20528;-51
2022/05/12 13:13:13;;;;;;;4.00;1.63;;;22.80;99.90;;;;;;5098250;28;20493;-51
2022/05/12 13:15:43;;;;;;;3.33;1.50;;;22.30;99.90;;;;;;5104111;28;20518;-51
2022/05/12 13:18:18;;;;;;;4.13;1.50;;;22.70;99.90;;;;;;5106438;28;20435;-52
2022/05/12 13:20:44;;;;;;;2.50;1.53;;;22.90;99.90;;;;;;5101066;28;20985;-51
2022/05/12 13:23:24;;;;;;;10.10;2.10;;;22.20;99.90;;;;;;5103208;28;20901;-51
2022/05/12 13:25:50;;;;;;;4.30;1.53;;;21.40;99.90;;;;;;5101061;28;20931;-52
2022/05/12 13:28:25;;;;;;;5.13;1.97;;;20.50;99.90;;;;;;5107114;28;20438;-51
2022/05/12 13:31:19;;;;;;;6.23;1.97;;;19.90;99.90;;;;;;5101039;28;20515;-51